Time;durP1;ratioP1;P1;durP2;ratioP2;P2;SDS_P1;SDS_P2;PMS_P1;PMS_P2;Temp;Humidity;BMP_temperature;BMP_pressure;BME280_temperature;BME280_humidity;BME280_pressure;Samples;Min_cycle;Max_cycle;Signal;HPM_P1;HPM_P2
2022/08/16 00:02:22;;;;;;;1.30;1.10;;;;;;;;;;5085657;28;20040;-67
2022/08/16 00:04:49;;;;;;;1.65;1.08;;;;;;;;;;5087599;28;20113;-68
2022/08/16 00:07:15;;;;;;;2.05;1.13;;;;;;;;;;5085025;28;20028;-67
2022/08/16 00:09:42;;;;;;;2.13;1.10;;;;;;;;;;5089897;28;20023;-67
2022/08/16 00:12:09;;;;;;;1.20;0.90;;;;;;;;;;5090811;28;20378;-67
2022/08/16 00:14:35;;;;;;;24.08;0.88;;;;;;;;;;5090773;28;20020;-67
2022/08/16 00:17:02;;;;;;;2.03;0.95;;;;;;;;;;5091612;28;20078;-67
2022/08/16 00:19:31;;;;;;;0.93;0.70;;;;;;;;;;5091053;28;20039;-67
2022/08/16 00:21:58;;;;;;;1.23;0.88;;;;;;;;;;5088262;28;20023;-67
2022/08/16 00:24:25;;;;;;;1.63;1.15;;;;;;;;;;5087974;28;20024;-67
2022/08/16 00:26:52;;;;;;;5.00;1.38;;;;;;;;;;5087594;28;20028;-67
2022/08/16 00:29:18;;;;;;;3.42;1.40;;;;;;;;;;5084162;28;20039;-67
2022/08/16 00:31:46;;;;;;;3.50;1.10;;;;;;;;;;5075849;28;20024;-67
2022/08/16 00:34:13;;;;;;;5.20;1.20;;;;;;;;;;5073000;28;20020;-67
2022/08/16 00:36:40;;;;;;;3.25;1.38;;;;;;;;;;5072564;28;20044;-67
2022/08/16 00:39:06;;;;;;;6.18;1.25;;;;;;;;;;5072842;28;20016;-67
2022/08/16 00:41:34;;;;;;;1.70;0.93;;;;;;;;;;5072586;28;20032;-67
2022/08/16 00:44:02;;;;;;;5.47;1.07;;;;;;;;;;5084220;28;20089;-67
2022/08/16 00:46:36;;;;;;;1.20;0.77;;;;;;;;;;5086980;28;20745;-66
2022/08/16 00:49:05;;;;;;;1.15;0.52;;;;;;;;;;5087299;28;20104;-66
2022/08/16 00:51:32;;;;;;;1.83;0.93;;;;;;;;;;5087155;28;20093;-67
2022/08/16 00:53:59;;;;;;;1.10;0.70;;;;;;;;;;5073289;28;20035;-68
2022/08/16 00:56:31;;;;;;;1.23;0.70;;;;;;;;;;5079741;28;20493;-66
2022/08/16 00:58:58;;;;;;;16.20;1.27;;;;;;;;;;5086439;28;20028;-66
2022/08/16 01:01:25;;;;;;;2.00;0.73;;;;;;;;;;5092374;28;20076;-66
2022/08/16 01:03:53;;;;;;;1.27;0.83;;;;;;;;;;5080154;28;20033;-66
2022/08/16 01:06:20;;;;;;;6.80;1.07;;;;;;;;;;5079012;28;20020;-67
2022/08/16 01:08:48;;;;;;;2.20;1.30;;;;;;;;;;5087159;28;20050;-66
2022/08/16 01:11:15;;;;;;;1.50;0.80;;;;;;;;;;5081318;28;20036;-66
2022/08/16 01:13:42;;;;;;;0.80;0.47;;;;;;;;;;5073119;28;20033;-66
2022/08/16 01:16:12;;;;;;;0.40;0.40;;;;;;;;;;5070060;28;20035;-66
2022/08/16 01:18:44;;;;;;;10.87;1.23;;;;;;;;;;5080631;28;20036;-66
2022/08/16 01:21:23;;;;;;;10.20;1.17;;;;;;;;;;5092215;28;20043;-66
2022/08/16 01:24:08;;;;;;;2.07;0.83;;;;;;;;;;5092509;28;20825;-67
2022/08/16 01:26:36;;;;;;;3.17;0.77;;;;;;;;;;5092402;28;20021;-66
2022/08/16 01:29:06;;;;;;;1.07;0.80;;;;;;;;;;5088728;28;20024;-66
2022/08/16 01:31:32;;;;;;;1.13;0.57;;;;;;;;;;5086628;28;20024;-66
2022/08/16 01:33:59;;;;;;;1.53;0.60;;;;;;;;;;5086682;28;20031;-66
2022/08/16 01:36:26;;;;;;;1.80;1.00;;;;;;;;;;5086987;28;20035;-66
2022/08/16 01:38:53;;;;;;;1.03;0.80;;;;;;;;;;5078133;28;20023;-67
2022/08/16 01:41:22;;;;;;;7.30;1.10;;;;;;;;;;5073576;28;20364;-67
2022/08/16 01:43:49;;;;;;;0.83;0.70;;;;;;;;;;5072069;28;20037;-67
2022/08/16 01:46:29;;;;;;;2.20;1.23;;;;;;;;;;5071979;28;20119;-66
2022/08/16 01:48:57;;;;;;;2.40;1.00;;;;;;;;;;5072141;28;20024;-66
2022/08/16 01:51:25;;;;;;;1.30;0.80;;;;;;;;;;5068492;28;20017;-67
2022/08/16 01:53:52;;;;;;;1.33;0.77;;;;;;;;;;5066648;28;20028;-66
2022/08/16 01:56:19;;;;;;;1.17;0.70;;;;;;;;;;5067161;28;20032;-67
2022/08/16 01:58:47;;;;;;;1.77;0.60;;;;;;;;;;5090891;28;20550;-66
2022/08/16 02:01:14;;;;;;;1.47;1.20;;;;;;;;;;5093174;28;20033;-66
2022/08/16 02:03:40;;;;;;;1.97;0.83;;;;;;;;;;5096060;28;20028;-66
2022/08/16 02:06:07;;;;;;;1.67;0.90;;;;;;;;;;5095993;28;20778;-66
2022/08/16 02:08:34;;;;;;;0.20;0.20;;;;;;;;;;5093506;28;20467;-66
2022/08/16 02:11:03;;;;;;;6.73;0.93;;;;;;;;;;5089181;28;20048;-66
2022/08/16 02:13:30;;;;;;;3.73;1.23;;;;;;;;;;5089416;28;20028;-66
2022/08/16 02:15:57;;;;;;;4.20;0.77;;;;;;;;;;5090634;28;20035;-66
2022/08/16 02:18:24;;;;;;;3.57;1.13;;;;;;;;;;5090079;28;20020;-66
2022/08/16 02:20:51;;;;;;;1.93;1.10;;;;;;;;;;5090466;28;20449;-66
2022/08/16 02:23:18;;;;;;;2.20;0.90;;;;;;;;;;5092530;28;20035;-66
2022/08/16 02:25:46;;;;;;;9.53;1.20;;;;;;;;;;5078150;28;20379;-66
2022/08/16 02:28:13;;;;;;;23.17;1.40;;;;;;;;;;5093989;28;20065;-65
2022/08/16 02:30:40;;;;;;;0.83;0.73;;;;;;;;;;5093740;28;20039;-66
2022/08/16 02:33:07;;;;;;;2.17;0.90;;;;;;;;;;5093763;28;20066;-66
2022/08/16 02:35:34;;;;;;;1.07;0.83;;;;;;;;;;5092687;28;20074;-66
2022/08/16 02:38:01;;;;;;;0.50;0.50;;;;;;;;;;5090155;28;20124;-66
2022/08/16 02:40:28;;;;;;;1.57;1.10;;;;;;;;;;5089957;28;20032;-65
2022/08/16 02:42:55;;;;;;;0.87;0.60;;;;;;;;;;5089780;28;20044;-66
2022/08/16 02:45:24;;;;;;;1.43;0.87;;;;;;;;;;5089547;28;20020;-66
2022/08/16 02:47:50;;;;;;;3.93;1.27;;;;;;;;;;5095216;28;20027;-66
2022/08/16 02:50:17;;;;;;;2.33;1.10;;;;;;;;;;5095240;28;20039;-65
2022/08/16 02:52:44;;;;;;;1.93;0.70;;;;;;;;;;5094894;28;20024;-65
2022/08/16 02:55:11;;;;;;;0.83;0.57;;;;;;;;;;5095164;28;20028;-65
2022/08/16 02:57:38;;;;;;;1.73;1.00;;;;;;;;;;5093249;28;20107;-67
2022/08/16 03:00:08;;;;;;;0.77;0.60;;;;;;;;;;5089456;28;20024;-66
2022/08/16 03:02:35;;;;;;;1.47;0.87;;;;;;;;;;5089758;28;20023;-65
2022/08/16 03:05:03;;;;;;;0.77;0.57;;;;;;;;;;5080763;28;20027;-65
2022/08/16 03:07:30;;;;;;;1.87;0.80;;;;;;;;;;5070311;28;20495;-65
2022/08/16 03:09:56;;;;;;;3.70;1.13;;;;;;;;;;5073833;28;20506;-65
2022/08/16 03:12:23;;;;;;;2.40;1.00;;;;;;;;;;5074700;28;20025;-65
2022/08/16 03:14:50;;;;;;;2.23;1.13;;;;;;;;;;5074645;28;20086;-65
2022/08/16 03:17:17;;;;;;;1.80;0.60;;;;;;;;;;5074238;28;20020;-66
2022/08/16 03:19:44;;;;;;;3.33;1.00;;;;;;;;;;5073374;28;20028;-65
2022/08/16 03:22:11;;;;;;;1.67;0.87;;;;;;;;;;5076989;28;20016;-67
2022/08/16 03:24:37;;;;;;;2.50;1.10;;;;;;;;;;5087381;28;20035;-65
2022/08/16 03:27:04;;;;;;;6.43;1.00;;;;;;;;;;5089051;28;20032;-66
2022/08/16 03:29:32;;;;;;;2.13;1.03;;;;;;;;;;5089191;28;20096;-66
2022/08/16 03:31:59;;;;;;;0.63;0.60;;;;;;;;;;5094385;28;20474;-65
2022/08/16 03:34:26;;;;;;;3.37;0.83;;;;;;;;;;5094189;28;20031;-65
2022/08/16 03:36:53;;;;;;;4.87;1.37;;;;;;;;;;5084048;28;20031;-65
2022/08/16 03:39:20;;;;;;;3.83;1.10;;;;;;;;;;5073929;28;20032;-66
2022/08/16 03:41:48;;;;;;;2.37;1.10;;;;;;;;;;5073727;28;20035;-65
2022/08/16 03:44:14;;;;;;;2.53;1.03;;;;;;;;;;5068404;28;20040;-65
2022/08/16 03:46:42;;;;;;;1.20;0.83;;;;;;;;;;5068650;28;20024;-65
2022/08/16 03:49:10;;;;;;;4.20;0.90;;;;;;;;;;5068498;28;20603;-65
2022/08/16 03:51:38;;;;;;;4.27;1.17;;;;;;;;;;5069165;28;20020;-65
2022/08/16 03:54:05;;;;;;;0.90;0.57;;;;;;;;;;5073370;28;20032;-65
2022/08/16 03:56:32;;;;;;;0.87;0.60;;;;;;;;;;5073727;28;20020;-65
2022/08/16 03:58:59;;;;;;;3.23;0.80;;;;;;;;;;5073299;28;20086;-65
2022/08/16 04:01:26;;;;;;;1.97;1.10;;;;;;;;;;5084532;28;20032;-65
2022/08/16 04:03:53;;;;;;;1.10;0.70;;;;;;;;;;5093853;28;20024;-65
2022/08/16 04:06:20;;;;;;;1.83;0.93;;;;;;;;;;5088679;28;20022;-65
2022/08/16 04:08:47;;;;;;;0.53;0.40;;;;;;;;;;5088132;28;20024;-65
2022/08/16 04:11:14;;;;;;;1.90;0.80;;;;;;;;;;5074254;28;20051;-65
2022/08/16 04:13:41;;;;;;;0.90;0.70;;;;;;;;;;5067907;28;20100;-65
2022/08/16 04:16:08;;;;;;;1.43;0.80;;;;;;;;;;5071728;28;20013;-65
2022/08/16 04:18:41;;;;;;;2.97;1.20;;;;;;;;;;5073274;28;20067;-65
2022/08/16 04:21:08;;;;;;;5.10;1.37;;;;;;;;;;5072104;28;20123;-65
2022/08/16 04:23:36;;;;;;;1.30;0.87;;;;;;;;;;5073065;28;20043;-65
2022/08/16 04:26:03;;;;;;;0.40;0.40;;;;;;;;;;5073026;28;20048;-65
2022/08/16 04:28:30;;;;;;;2.80;1.40;;;;;;;;;;5068410;28;20028;-65
2022/08/16 04:30:56;;;;;;;1.00;0.60;;;;;;;;;;5067749;28;20027;-65
2022/08/16 04:33:24;;;;;;;2.43;1.50;;;;;;;;;;5084864;28;20483;-65
2022/08/16 04:35:52;;;;;;;8.43;1.13;;;;;;;;;;5087669;28;20619;-65
2022/08/16 04:38:18;;;;;;;0.60;0.43;;;;;;;;;;5091520;28;20348;-65
2022/08/16 04:40:46;;;;;;;3.53;1.00;;;;;;;;;;5092771;28;20078;-65
2022/08/16 04:43:14;;;;;;;1.90;1.20;;;;;;;;;;5092796;28;20024;-65
2022/08/16 04:45:41;;;;;;;1.10;0.70;;;;;;;;;;5092978;28;20047;-66
2022/08/16 04:48:09;;;;;;;1.10;0.70;;;;;;;;;;5092581;28;20032;-65
2022/08/16 04:50:36;;;;;;;1.37;1.03;;;;;;;;;;5088747;28;20118;-64
2022/08/16 04:53:03;;;;;;;6.93;1.33;;;;;;;;;;5087508;28;20028;-64
2022/08/16 04:55:30;;;;;;;1.50;1.00;;;;;;;;;;5069278;28;20033;-64
2022/08/16 04:57:57;;;;;;;1.43;0.93;;;;;;;;;;5067343;28;20027;-64
2022/08/16 05:00:26;;;;;;;6.63;1.47;;;;;;;;;;5070336;28;20111;-65
2022/08/16 05:02:53;;;;;;;2.07;1.00;;;;;;;;;;5072454;28;20490;-64
2022/08/16 05:05:21;;;;;;;2.20;1.07;;;;;;;;;;5072164;28;20367;-65
2022/08/16 05:07:48;;;;;;;1.87;1.20;;;;;;;;;;5072577;28;20025;-65
2022/08/16 05:10:15;;;;;;;1.03;0.77;;;;;;;;;;5072549;28;20434;-65
2022/08/16 05:12:42;;;;;;;1.40;0.90;;;;;;;;;;5068665;28;20016;-65
2022/08/16 05:15:09;;;;;;;1.53;0.93;;;;;;;;;;5068336;28;20475;-65
2022/08/16 05:17:36;;;;;;;2.17;1.20;;;;;;;;;;5087064;28;20374;-64
2022/08/16 05:20:04;;;;;;;1.20;0.80;;;;;;;;;;5087126;28;20028;-64
2022/08/16 05:22:31;;;;;;;0.57;0.53;;;;;;;;;;5089784;28;20012;-64
2022/08/16 05:24:58;;;;;;;2.70;1.47;;;;;;;;;;5092485;28;20031;-65
2022/08/16 05:27:25;;;;;;;1.77;0.90;;;;;;;;;;5092661;28;20100;-64
2022/08/16 05:29:51;;;;;;;2.20;1.40;;;;;;;;;;5092473;28;20517;-64
2022/08/16 05:32:18;;;;;;;2.27;1.23;;;;;;;;;;5090282;28;20479;-64
2022/08/16 05:34:45;;;;;;;1.20;0.73;;;;;;;;;;5089323;28;20028;-64
2022/08/16 05:37:11;;;;;;;1.37;0.93;;;;;;;;;;5087139;28;20024;-63
2022/08/16 05:39:38;;;;;;;0.90;0.70;;;;;;;;;;5086896;28;20024;-63
2022/08/16 05:42:05;;;;;;;1.90;1.27;;;;;;;;;;5085294;28;20023;-66
2022/08/16 05:44:31;;;;;;;1.17;0.83;;;;;;;;;;5069015;28;20037;-64
2022/08/16 05:46:59;;;;;;;3.40;1.67;;;;;;;;;;5071997;28;20032;-64
2022/08/16 05:49:27;;;;;;;1.67;1.37;;;;;;;;;;5072005;28;20024;-65
2022/08/16 05:51:54;;;;;;;2.33;1.37;;;;;;;;;;5072023;28;20095;-64
2022/08/16 05:54:21;;;;;;;1.90;1.03;;;;;;;;;;5071787;28;20025;-65
2022/08/16 05:56:48;;;;;;;3.43;1.47;;;;;;;;;;5069727;28;20049;-65
2022/08/16 05:59:16;;;;;;;1.20;0.97;;;;;;;;;;5067827;28;20033;-63
2022/08/16 06:01:49;;;;;;;0.40;0.37;;;;;;;;;;5066776;28;20082;-64
2022/08/16 06:04:16;;;;;;;2.80;1.23;;;;;;;;;;5066781;28;20363;-64
2022/08/16 06:06:44;;;;;;;1.90;1.27;;;;;;;;;;5068449;28;20021;-64
2022/08/16 06:09:11;;;;;;;1.83;1.20;;;;;;;;;;5071699;28;20020;-63
2022/08/16 06:11:38;;;;;;;1.40;1.07;;;;;;;;;;5071890;28;20025;-64
2022/08/16 06:14:05;;;;;;;0.67;0.57;;;;;;;;;;5071828;28;20467;-64
2022/08/16 06:16:32;;;;;;;1.97;1.23;;;;;;;;;;5071935;28;20031;-64
2022/08/16 06:18:59;;;;;;;0.87;0.77;;;;;;;;;;5086382;28;20025;-65
2022/08/16 06:21:26;;;;;;;2.53;1.10;;;;;;;;;;5086675;28;20032;-64
2022/08/16 06:23:53;;;;;;;2.17;1.03;;;;;;;;;;5086663;28;20487;-64
2022/08/16 06:26:20;;;;;;;0.80;0.60;;;;;;;;;;5086192;28;20016;-65
2022/08/16 06:28:46;;;;;;;1.27;0.90;;;;;;;;;;5087835;28;20024;-64
2022/08/16 06:31:14;;;;;;;2.17;1.17;;;;;;;;;;5091876;28;20028;-64
2022/08/16 06:33:41;;;;;;;1.00;0.80;;;;;;;;;;5092090;28;20023;-64
2022/08/16 06:36:08;;;;;;;1.10;0.80;;;;;;;;;;5091777;28;20421;-65
2022/08/16 06:38:35;;;;;;;2.43;1.57;;;;;;;;;;5091850;28;20074;-64
2022/08/16 06:41:05;;;;;;;1.30;1.00;;;;;;;;;;5070240;28;20039;-65
2022/08/16 06:43:32;;;;;;;3.10;1.17;;;;;;;;;;5066763;28;20422;-64
2022/08/16 06:46:00;;;;;;;1.47;0.93;;;;;;;;;;5069987;28;20030;-63
2022/08/16 06:48:27;;;;;;;2.43;1.50;;;;;;;;;;5069957;28;20051;-64
2022/08/16 06:50:54;;;;;;;1.53;1.10;;;;;;;;;;5090743;28;20016;-63
2022/08/16 06:53:21;;;;;;;2.23;1.57;;;;;;;;;;5095255;28;20027;-63
2022/08/16 06:55:48;;;;;;;1.83;1.23;;;;;;;;;;5095090;28;20066;-64
2022/08/16 06:58:15;;;;;;;2.27;1.10;;;;;;;;;;5094987;28;20023;-63
2022/08/16 07:00:41;;;;;;;2.17;1.13;;;;;;;;;;5094667;28;20039;-63
2022/08/16 07:03:08;;;;;;;1.33;1.00;;;;;;;;;;5094182;28;20032;-63
2022/08/16 07:05:35;;;;;;;1.73;1.07;;;;;;;;;;5089758;28;20020;-63
2022/08/16 07:08:03;;;;;;;3.57;1.30;;;;;;;;;;5089829;28;20024;-63
2022/08/16 07:10:29;;;;;;;2.50;1.70;;;;;;;;;;5071167;28;20020;-64
2022/08/16 07:12:56;;;;;;;3.57;1.67;;;;;;;;;;5069425;28;20498;-64
2022/08/16 07:15:23;;;;;;;3.20;1.87;;;;;;;;;;5074443;28;20029;-64
2022/08/16 07:17:50;;;;;;;2.57;1.40;;;;;;;;;;5074376;28;20055;-64
2022/08/16 07:20:21;;;;;;;3.03;1.23;;;;;;;;;;5074363;28;20036;-64
2022/08/16 07:22:48;;;;;;;2.53;1.40;;;;;;;;;;5074443;28;20013;-64
2022/08/16 07:25:15;;;;;;;2.27;1.37;;;;;;;;;;5074041;28;20029;-64
2022/08/16 07:27:42;;;;;;;1.33;0.90;;;;;;;;;;5069184;28;20025;-64
2022/08/16 07:30:10;;;;;;;1.77;1.03;;;;;;;;;;5069865;28;20025;-64
2022/08/16 07:32:37;;;;;;;1.80;1.10;;;;;;;;;;5089028;28;20024;-64
2022/08/16 07:35:05;;;;;;;2.47;1.23;;;;;;;;;;5089058;28;20024;-65
2022/08/16 07:37:31;;;;;;;1.50;1.30;;;;;;;;;;5091640;28;20032;-63
2022/08/16 07:39:58;;;;;;;3.63;1.83;;;;;;;;;;5074059;28;20071;-64
2022/08/16 07:42:25;;;;;;;3.27;2.17;;;;;;;;;;5074010;28;20024;-64
2022/08/16 07:44:51;;;;;;;1.83;1.20;;;;;;;;;;5073991;28;20060;-64
2022/08/16 07:47:18;;;;;;;3.00;1.63;;;;;;;;;;5073921;28;20035;-64
2022/08/16 07:49:44;;;;;;;2.07;1.03;;;;;;;;;;5068514;28;20023;-64
2022/08/16 07:52:11;;;;;;;0.97;0.70;;;;;;;;;;5068567;28;20056;-64
2022/08/16 07:54:38;;;;;;;2.00;1.27;;;;;;;;;;5068489;28;20379;-64
2022/08/16 07:57:05;;;;;;;2.50;1.20;;;;;;;;;;5068536;28;20020;-64
2022/08/16 07:59:31;;;;;;;1.60;1.10;;;;;;;;;;5091626;28;20028;-65
2022/08/16 08:01:58;;;;;;;2.47;0.63;;;;;;;;;;5093984;28;20389;-64
2022/08/16 08:04:25;;;;;;;1.90;0.90;;;;;;;;;;5093786;28;20386;-64
2022/08/16 08:06:52;;;;;;;1.23;0.77;;;;;;;;;;5093324;28;20028;-64
2022/08/16 08:09:18;;;;;;;1.90;0.70;;;;;;;;;;5093534;28;20020;-64
2022/08/16 08:11:45;;;;;;;0.73;0.70;;;;;;;;;;5089363;28;20020;-64
2022/08/16 08:14:12;;;;;;;2.57;0.93;;;;;;;;;;5070503;28;20444;-65
2022/08/16 08:16:38;;;;;;;2.87;0.77;;;;;;;;;;5088401;28;20034;-65
2022/08/16 08:19:11;;;;;;;3.63;0.67;;;;;;;;;;5088373;28;20378;-64
2022/08/16 08:21:39;;;;;;;0.93;0.73;;;;;;;;;;5071187;28;20040;-64
2022/08/16 08:24:08;;;;;;;0.80;0.53;;;;;;;;;;5073299;28;20073;-65
2022/08/16 08:26:34;;;;;;;1.07;0.70;;;;;;;;;;5092014;28;20016;-64
2022/08/16 08:29:02;;;;;;;0.53;0.50;;;;;;;;;;5093326;28;20021;-64
2022/08/16 08:31:28;;;;;;;0.47;0.33;;;;;;;;;;5093193;28;20021;-66
2022/08/16 08:33:57;;;;;;;0.43;0.43;;;;;;;;;;5069221;28;20115;-64
2022/08/16 08:36:25;;;;;;;0.77;0.73;;;;;;;;;;5067809;28;20027;-64
2022/08/16 08:38:52;;;;;;;1.40;1.00;;;;;;;;;;5067846;28;20028;-63
2022/08/16 08:41:19;;;;;;;0.83;0.63;;;;;;;;;;5067538;28;20039;-63
2022/08/16 08:43:46;;;;;;;3.47;1.30;;;;;;;;;;5070514;28;20475;-63
2022/08/16 08:46:13;;;;;;;0.77;0.60;;;;;;;;;;5072959;28;20382;-63
2022/08/16 08:48:39;;;;;;;0.30;0.30;;;;;;;;;;5090443;28;20027;-65
2022/08/16 08:51:07;;;;;;;3.07;0.90;;;;;;;;;;5092948;28;20043;-64
2022/08/16 08:53:35;;;;;;;0.60;0.60;;;;;;;;;;5092737;28;20027;-65
2022/08/16 08:56:02;;;;;;;1.13;0.80;;;;;;;;;;5089783;28;20144;-64
2022/08/16 08:58:29;;;;;;;0.53;0.40;;;;;;;;;;5087739;28;20020;-64
2022/08/16 09:00:56;;;;;;;0.77;0.70;;;;;;;;;;5087400;28;20032;-64
2022/08/16 09:03:23;;;;;;;0.77;0.57;;;;;;;;;;5087605;28;20112;-64
2022/08/16 09:05:50;;;;;;;1.00;0.73;;;;;;;;;;5089810;28;20081;-64
2022/08/16 09:08:16;;;;;;;0.77;0.40;;;;;;;;;;5076924;28;20440;-63
2022/08/16 09:10:43;;;;;;;0.40;0.40;;;;;;;;;;5072271;28;20475;-63
2022/08/16 09:13:10;;;;;;;2.33;0.70;;;;;;;;;;5072566;28;20091;-63
2022/08/16 09:15:38;;;;;;;0.30;0.23;;;;;;;;;;5072525;28;20461;-63
2022/08/16 09:18:05;;;;;;;2.53;1.20;;;;;;;;;;5069572;28;20055;-63
2022/08/16 09:20:31;;;;;;;1.23;0.83;;;;;;;;;;5067159;28;20082;-64
2022/08/16 09:23:01;;;;;;;4.33;1.17;;;;;;;;;;5067255;28;20024;-64
2022/08/16 09:25:28;;;;;;;0.40;0.40;;;;;;;;;;5067313;28;20024;-64
2022/08/16 09:27:54;;;;;;;0.43;0.40;;;;;;;;;;5069010;28;20036;-64
2022/08/16 09:30:21;;;;;;;1.03;0.70;;;;;;;;;;5087719;28;20032;-64
2022/08/16 09:32:49;;;;;;;0.63;0.57;;;;;;;;;;5092438;28;20032;-64
2022/08/16 09:35:16;;;;;;;1.33;0.90;;;;;;;;;;5092396;28;20476;-64
2022/08/16 09:37:43;;;;;;;1.00;0.70;;;;;;;;;;5092456;28;20031;-64
2022/08/16 09:40:10;;;;;;;10.87;1.40;;;;;;;;;;5089989;28;20071;-64
2022/08/16 09:42:36;;;;;;;1.10;0.70;;;;;;;;;;5087210;28;20024;-64
2022/08/16 09:45:05;;;;;;;1.80;0.60;;;;;;;;;;5086868;28;20072;-63
2022/08/16 09:47:36;;;;;;;1.00;0.80;;;;;;;;;;5069382;28;20371;-63
2022/08/16 09:50:03;;;;;;;0.30;0.30;;;;;;;;;;5088774;28;20058;-63
2022/08/16 09:52:29;;;;;;;1.27;0.60;;;;;;;;;;5072133;28;20483;-63
2022/08/16 09:54:56;;;;;;;0.70;0.70;;;;;;;;;;5072126;28;20494;-64
2022/08/16 09:57:23;;;;;;;0.67;0.50;;;;;;;;;;5071893;28;20021;-64
2022/08/16 09:59:49;;;;;;;0.83;0.50;;;;;;;;;;5071938;28;20429;-64
2022/08/16 10:02:16;;;;;;;1.10;0.53;;;;;;;;;;5069647;28;20062;-64
2022/08/16 10:04:43;;;;;;;1.33;0.83;;;;;;;;;;5066813;28;20035;-65
2022/08/16 10:07:10;;;;;;;1.23;0.93;;;;;;;;;;5066776;28;20021;-65
2022/08/16 10:09:36;;;;;;;2.20;0.97;;;;;;;;;;5066529;28;20025;-64
2022/08/16 10:14:49;;;;;;;2.58;1.33;;;;;;;;;;5091780;28;20043;-64
2022/08/16 10:17:16;;;;;;;1.13;0.50;;;;;;;;;;5092002;28;20680;-64
2022/08/16 10:19:45;;;;;;;0.43;0.40;;;;;;;;;;5094707;28;20031;-65
2022/08/16 10:22:12;;;;;;;0.70;0.50;;;;;;;;;;5095906;28;20016;-63
2022/08/16 10:24:40;;;;;;;1.73;1.07;;;;;;;;;;5093622;28;20028;-64
2022/08/16 10:27:07;;;;;;;1.60;0.57;;;;;;;;;;5090436;28;20352;-63
2022/08/16 10:29:34;;;;;;;0.97;0.77;;;;;;;;;;5090137;28;20062;-63
2022/08/16 10:32:01;;;;;;;1.07;0.90;;;;;;;;;;5090495;28;20035;-63
2022/08/16 10:34:27;;;;;;;0.53;0.53;;;;;;;;;;5082198;28;20044;-63
2022/08/16 10:36:54;;;;;;;1.40;1.03;;;;;;;;;;5075355;28;20099;-63
2022/08/16 10:39:21;;;;;;;0.40;0.40;;;;;;;;;;5075376;28;20455;-63
2022/08/16 10:41:47;;;;;;;2.57;0.93;;;;;;;;;;5075088;28;20035;-63
2022/08/16 10:44:14;;;;;;;1.27;1.03;;;;;;;;;;5075036;28;20036;-63
2022/08/16 10:46:42;;;;;;;12.77;1.67;;;;;;;;;;5073281;28;20025;-63
2022/08/16 10:49:10;;;;;;;6.07;1.33;;;;;;;;;;5069922;28;20378;-64
2022/08/16 10:51:38;;;;;;;2.00;1.40;;;;;;;;;;5069964;28;20032;-64
2022/08/16 10:54:05;;;;;;;1.80;0.90;;;;;;;;;;5069817;28;20029;-63
2022/08/16 10:56:33;;;;;;;1.23;1.13;;;;;;;;;;5061590;28;20367;-64
2022/08/16 10:58:59;;;;;;;0.73;0.50;;;;;;;;;;5095080;28;20151;-64
2022/08/16 11:01:26;;;;;;;1.77;1.10;;;;;;;;;;5090538;28;20028;-64
2022/08/16 11:03:54;;;;;;;1.43;1.10;;;;;;;;;;5075020;28;20379;-63
2022/08/16 11:06:20;;;;;;;1.53;1.20;;;;;;;;;;5074999;28;20037;-63
2022/08/16 11:08:47;;;;;;;1.00;0.87;;;;;;;;;;5073802;28;20391;-63
2022/08/16 11:11:14;;;;;;;1.30;0.60;;;;;;;;;;5069592;28;20028;-63
2022/08/16 11:13:41;;;;;;;1.57;0.93;;;;;;;;;;5069578;28;20032;-64
2022/08/16 11:16:09;;;;;;;1.80;1.10;;;;;;;;;;5069511;28;20031;-65
2022/08/16 11:18:35;;;;;;;0.90;0.87;;;;;;;;;;5069049;28;20450;-64
2022/08/16 11:21:02;;;;;;;2.40;1.17;;;;;;;;;;5075240;28;20103;-63
2022/08/16 11:23:29;;;;;;;0.73;0.70;;;;;;;;;;5094618;28;20034;-64
2022/08/16 11:25:56;;;;;;;1.40;1.20;;;;;;;;;;5094625;28;20020;-64
2022/08/16 11:28:23;;;;;;;0.53;0.50;;;;;;;;;;5082557;28;20017;-64
2022/08/16 11:30:50;;;;;;;0.87;0.77;;;;;;;;;;5073410;28;20016;-64
2022/08/16 11:33:17;;;;;;;3.50;1.37;;;;;;;;;;5068834;28;20111;-65
2022/08/16 11:35:44;;;;;;;0.87;0.80;;;;;;;;;;5068841;28;20023;-64
2022/08/16 11:38:18;;;;;;;1.33;1.00;;;;;;;;;;5069031;28;20033;-64
2022/08/16 11:40:50;;;;;;;1.20;1.10;;;;;;;;;;5068825;28;20032;-65
2022/08/16 11:43:18;;;;;;;0.53;0.50;;;;;;;;;;5074035;28;20740;-65
2022/08/16 11:45:46;;;;;;;1.13;0.90;;;;;;;;;;5073921;28;20021;-64
2022/08/16 11:48:13;;;;;;;1.70;0.70;;;;;;;;;;5074658;28;20021;-64
2022/08/16 11:50:41;;;;;;;1.37;0.80;;;;;;;;;;5073630;28;20090;-64
2022/08/16 11:53:07;;;;;;;1.90;1.20;;;;;;;;;;5073598;28;20060;-63
2022/08/16 11:55:35;;;;;;;30.97;2.13;;;;;;;;;;5068510;28;20097;-64
2022/08/16 11:58:02;;;;;;;3.47;1.70;;;;;;;;;;5068677;28;20029;-63
2022/08/16 12:00:30;;;;;;;6.53;1.93;;;;;;;;;;5068451;28;20361;-64
2022/08/16 12:02:57;;;;;;;4.83;1.20;;;;;;;;;;5068308;28;20425;-63
2022/08/16 12:05:23;;;;;;;1.37;1.10;;;;;;;;;;5073295;28;20035;-63
2022/08/16 12:07:50;;;;;;;2.07;1.50;;;;;;;;;;5073336;28;20024;-63
2022/08/16 12:10:18;;;;;;;1.00;0.80;;;;;;;;;;5082263;28;20020;-63
2022/08/16 12:12:45;;;;;;;3.40;1.40;;;;;;;;;;5093399;28;20020;-64
2022/08/16 12:15:13;;;;;;;1.37;1.17;;;;;;;;;;5093686;28;20111;-64
2022/08/16 12:17:41;;;;;;;2.50;1.53;;;;;;;;;;5088463;28;20024;-64
2022/08/16 12:20:09;;;;;;;1.43;1.23;;;;;;;;;;5087820;28;20036;-64
2022/08/16 12:22:37;;;;;;;3.53;1.70;;;;;;;;;;5088321;28;20062;-64
2022/08/16 12:25:12;;;;;;;1.37;1.27;;;;;;;;;;5088066;28;20056;-64
2022/08/16 12:27:39;;;;;;;3.07;1.93;;;;;;;;;;5093101;28;20016;-64
2022/08/16 12:30:07;;;;;;;2.30;1.53;;;;;;;;;;5093089;28;20539;-66
2022/08/16 12:32:34;;;;;;;3.53;1.73;;;;;;;;;;5073015;28;20028;-64
2022/08/16 12:35:01;;;;;;;2.40;1.83;;;;;;;;;;5072700;28;20021;-64
2022/08/16 12:37:28;;;;;;;2.97;2.07;;;;;;;;;;5073088;28;20420;-64
2022/08/16 12:39:56;;;;;;;3.33;1.90;;;;;;;;;;5067813;28;20044;-64
2022/08/16 12:42:24;;;;;;;2.40;1.83;;;;;;;;;;5066960;28;20666;-64
2022/08/16 12:44:51;;;;;;;1.60;1.30;;;;;;;;;;5067579;28;20495;-65
2022/08/16 12:50:06;;;;;;;2.53;1.80;;;;;;;;;;5073651;28;20082;-65
2022/08/16 12:52:33;;;;;;;3.67;2.87;;;;;;;;;;5092989;28;20073;-66
2022/08/16 12:55:00;;;;;;;3.50;2.53;;;;;;;;;;5092850;28;20048;-66
2022/08/16 12:57:26;;;;;;;7.03;2.33;;;;;;;;;;5092813;28;20078;-67
2022/08/16 12:59:53;;;;;;;3.67;2.53;;;;;;;;;;5092644;28;20046;-65
2022/08/16 13:02:20;;;;;;;4.80;3.63;;;;;;;;;;5087022;28;20024;-66
2022/08/16 13:04:47;;;;;;;4.67;3.37;;;;;;;;;;5087556;28;20387;-66
2022/08/16 13:07:13;;;;;;;3.27;2.60;;;;;;;;;;5079978;28;20025;-67
2022/08/16 13:09:51;;;;;;;2.23;1.90;;;;;;;;;;5067430;28;20036;-67
2022/08/16 13:12:19;;;;;;;2.43;1.90;;;;;;;;;;5072251;28;20020;-66
2022/08/16 13:14:46;;;;;;;1.93;1.57;;;;;;;;;;5072476;28;20386;-66
2022/08/16 13:17:14;;;;;;;4.07;2.40;;;;;;;;;;5072002;28;20024;-67
2022/08/16 13:19:41;;;;;;;4.00;2.33;;;;;;;;;;5072315;28;20482;-66
2022/08/16 13:22:08;;;;;;;4.27;2.53;;;;;;;;;;5072213;28;20040;-64
2022/08/16 13:24:35;;;;;;;3.17;1.90;;;;;;;;;;5067196;28;20491;-65
2022/08/16 13:27:01;;;;;;;5.73;2.77;;;;;;;;;;5072876;28;20120;-65
2022/08/16 13:29:28;;;;;;;4.43;2.60;;;;;;;;;;5083670;28;20024;-65
2022/08/16 13:31:55;;;;;;;3.30;2.30;;;;;;;;;;5085377;28;20019;-65
2022/08/16 13:34:22;;;;;;;2.57;1.87;;;;;;;;;;5091153;28;20031;-65
2022/08/16 13:36:48;;;;;;;2.00;1.60;;;;;;;;;;5092407;28;20026;-63
2022/08/16 13:39:16;;;;;;;2.27;1.87;;;;;;;;;;5092260;28;20120;-63
2022/08/16 13:41:42;;;;;;;2.83;1.70;;;;;;;;;;5092290;28;20368;-63
2022/08/16 13:44:09;;;;;;;4.87;2.83;;;;;;;;;;5092325;28;20043;-63
2022/08/16 13:46:36;;;;;;;2.47;1.87;;;;;;;;;;5087592;28;20032;-63
2022/08/16 13:49:03;;;;;;;3.57;2.00;;;;;;;;;;5086607;28;20028;-63
2022/08/16 13:51:30;;;;;;;3.07;1.90;;;;;;;;;;5076077;28;20442;-64
2022/08/16 13:54:01;;;;;;;3.20;1.77;;;;;;;;;;5070157;28;20048;-63
2022/08/16 13:56:28;;;;;;;2.63;1.30;;;;;;;;;;5074780;28;20021;-63
2022/08/16 13:58:55;;;;;;;1.50;1.17;;;;;;;;;;5076072;28;20066;-64
2022/08/16 14:01:22;;;;;;;5.77;1.30;;;;;;;;;;5075966;28;20036;-63
2022/08/16 14:03:49;;;;;;;1.37;1.07;;;;;;;;;;5075932;28;20070;-63
2022/08/16 14:06:16;;;;;;;1.10;0.90;;;;;;;;;;5075736;28;20079;-63
2022/08/16 14:08:43;;;;;;;2.90;1.57;;;;;;;;;;5071474;28;20025;-63
2022/08/16 14:11:11;;;;;;;2.33;1.20;;;;;;;;;;5070476;28;20024;-64
2022/08/16 14:13:38;;;;;;;1.30;0.87;;;;;;;;;;5078740;28;20438;-63
2022/08/16 14:16:05;;;;;;;1.97;1.00;;;;;;;;;;5070435;28;20024;-63
2022/08/16 14:18:32;;;;;;;1.03;0.90;;;;;;;;;;5073840;28;20020;-63
2022/08/16 14:20:58;;;;;;;2.80;1.50;;;;;;;;;;5075054;28;20094;-63
2022/08/16 14:23:25;;;;;;;1.63;1.13;;;;;;;;;;5075667;28;20028;-63
2022/08/16 14:25:52;;;;;;;2.80;1.50;;;;;;;;;;5075395;28;20043;-63
2022/08/16 14:28:19;;;;;;;1.00;0.80;;;;;;;;;;5075353;28;20077;-63
2022/08/16 14:30:46;;;;;;;2.47;1.37;;;;;;;;;;5072002;28;20027;-63
2022/08/16 14:33:12;;;;;;;0.77;0.53;;;;;;;;;;5069983;28;20032;-63
2022/08/16 14:35:39;;;;;;;1.70;1.07;;;;;;;;;;5090053;28;20028;-63
2022/08/16 14:38:06;;;;;;;2.37;1.43;;;;;;;;;;5089821;28;20054;-64
2022/08/16 14:40:34;;;;;;;2.33;1.30;;;;;;;;;;5092492;28;20043;-63
2022/08/16 14:43:01;;;;;;;1.27;1.10;;;;;;;;;;5095377;28;20592;-63
2022/08/16 14:45:28;;;;;;;1.73;1.30;;;;;;;;;;5095055;28;20420;-64
2022/08/16 14:47:55;;;;;;;9.03;1.77;;;;;;;;;;5095272;28;20036;-64
2022/08/16 14:50:23;;;;;;;2.47;1.23;;;;;;;;;;5095157;28;20015;-63